Perdue, Canada
Current Conditions -  °F | °C
As of 2:11 PM on Friday 19 Dec 2014 (Local Time) from CYXE Reporting Station
Haze Haze  
Wind Chill:   Ceiling: 300
Heat Index: 16°   Visibility: 2mi
Dew Point: 14°   Wind: 7mph
Humidity: 93%   Direction: 140°SE
Pressure: 29.92"   Gusts: NA
Location:  52.05°N, 107.55°W
Report Text: CYXE 192011Z 14006KT 120V190 2SM R09/4500VP6000FT/U BR OVC003 M09/M10 A2992 RMK FG4ST4 SLP168
Loading
Personal Weather Stations






























Interactive Weather Map New forecast layout! Learn more

10-Day Weather Forecast

Advertisements
Track Severe Weather on mobile